sensor_id;sensor_type;location;lat;lon;timestamp;P1;durP1;ratioP1;P2;durP2;ratioP2
69358;SDS011;56520;49.066;8.660;2022-10-15T00:01:40;1.38;;;0.75;;
69358;SDS011;56520;49.066;8.660;2022-10-15T00:04:05;0.93;;;0.50;;
69358;SDS011;56520;49.066;8.660;2022-10-15T00:06:30;2.08;;;0.80;;
69358;SDS011;56520;49.066;8.660;2022-10-15T00:08:59;0.85;;;0.43;;
69358;SDS011;56520;49.066;8.660;2022-10-15T00:11:25;2.33;;;0.95;;
69358;SDS011;56520;49.066;8.660;2022-10-15T00:13:52;2.10;;;0.80;;
69358;SDS011;56520;49.066;8.660;2022-10-15T00:16:20;2.40;;;0.68;;
69358;SDS011;56520;49.066;8.660;2022-10-15T00:18:47;1.77;;;0.82;;
69358;SDS011;56520;49.066;8.660;2022-10-15T00:21:15;1.38;;;0.80;;
69358;SDS011;56520;49.066;8.660;2022-10-15T00:23:42;1.50;;;0.60;;
69358;SDS011;56520;49.066;8.660;2022-10-15T00:26:09;1.92;;;0.70;;
69358;SDS011;56520;49.066;8.660;2022-10-15T00:28:39;1.80;;;0.77;;
69358;SDS011;56520;49.066;8.660;2022-10-15T00:31:06;1.83;;;0.80;;
69358;SDS011;56520;49.066;8.660;2022-10-15T00:33:43;2.67;;;0.68;;
69358;SDS011;56520;49.066;8.660;2022-10-15T00:36:12;1.65;;;0.65;;
69358;SDS011;56520;49.066;8.660;2022-10-15T00:38:40;2.00;;;0.88;;
69358;SDS011;56520;49.066;8.660;2022-10-15T00:41:06;1.17;;;0.60;;
69358;SDS011;56520;49.066;8.660;2022-10-15T00:43:36;1.52;;;0.75;;
69358;SDS011;56520;49.066;8.660;2022-10-15T00:46:04;1.20;;;0.70;;
69358;SDS011;56520;49.066;8.660;2022-10-15T00:48:36;2.05;;;0.70;;
69358;SDS011;56520;49.066;8.660;2022-10-15T00:51:02;1.50;;;0.63;;
69358;SDS011;56520;49.066;8.660;2022-10-15T00:53:29;2.60;;;1.00;;
69358;SDS011;56520;49.066;8.660;2022-10-15T00:55:58;1.27;;;0.70;;
69358;SDS011;56520;49.066;8.660;2022-10-15T00:58:28;1.27;;;0.68;;
69358;SDS011;56520;49.066;8.660;2022-10-15T01:00:56;0.63;;;0.40;;
69358;SDS011;56520;49.066;8.660;2022-10-15T01:03:23;0.63;;;0.50;;
69358;SDS011;56520;49.066;8.660;2022-10-15T01:05:49;0.22;;;0.20;;
69358;SDS011;56520;49.066;8.660;2022-10-15T01:08:15;0.35;;;0.13;;
69358;SDS011;56520;49.066;8.660;2022-10-15T01:10:52;0.30;;;0.30;;
69358;SDS011;56520;49.066;8.660;2022-10-15T01:16:18;0.28;;;0.28;;
69358;SDS011;56520;49.066;8.660;2022-10-15T01:21:23;0.47;;;0.22;;
69358;SDS011;56520;49.066;8.660;2022-10-15T01:32:46;0.47;;;0.20;;
69358;SDS011;56520;49.066;8.660;2022-10-15T01:35:36;0.60;;;0.50;;
69358;SDS011;56520;49.066;8.660;2022-10-15T01:38:19;1.13;;;0.30;;
69358;SDS011;56520;49.066;8.660;2022-10-15T01:43:43;0.28;;;0.20;;
69358;SDS011;56520;49.066;8.660;2022-10-15T01:46:13;1.70;;;0.40;;
69358;SDS011;56520;49.066;8.660;2022-10-15T01:48:44;0.55;;;0.20;;
69358;SDS011;56520;49.066;8.660;2022-10-15T01:51:13;1.17;;;0.40;;
69358;SDS011;56520;49.066;8.660;2022-10-15T01:53:42;0.55;;;0.43;;
69358;SDS011;56520;49.066;8.660;2022-10-15T01:56:10;0.65;;;0.40;;
69358;SDS011;56520;49.066;8.660;2022-10-15T01:58:40;1.67;;;0.20;;
69358;SDS011;56520;49.066;8.660;2022-10-15T02:01:07;1.85;;;0.30;;
69358;SDS011;56520;49.066;8.660;2022-10-15T02:03:42;0.17;;;0.17;;
69358;SDS011;56520;49.066;8.660;2022-10-15T02:06:36;0.73;;;0.50;;
69358;SDS011;56520;49.066;8.660;2022-10-15T02:14:32;0.45;;;0.40;;
69358;SDS011;56520;49.066;8.660;2022-10-15T02:17:07;0.47;;;0.30;;
69358;SDS011;56520;49.066;8.660;2022-10-15T02:22:10;0.22;;;0.20;;
69358;SDS011;56520;49.066;8.660;2022-10-15T02:24:48;0.20;;;0.20;;
69358;SDS011;56520;49.066;8.660;2022-10-15T02:27:21;2.20;;;0.28;;
69358;SDS011;56520;49.066;8.660;2022-10-15T02:29:50;0.47;;;0.47;;
69358;SDS011;56520;49.066;8.660;2022-10-15T02:32:18;0.95;;;0.40;;
69358;SDS011;56520;49.066;8.660;2022-10-15T02:34:45;0.30;;;0.30;;
69358;SDS011;56520;49.066;8.660;2022-10-15T02:37:11;0.43;;;0.30;;
69358;SDS011;56520;49.066;8.660;2022-10-15T02:39:37;0.75;;;0.40;;
69358;SDS011;56520;49.066;8.660;2022-10-15T02:42:03;0.43;;;0.40;;
69358;SDS011;56520;49.066;8.660;2022-10-15T02:44:28;0.30;;;0.20;;
69358;SDS011;56520;49.066;8.660;2022-10-15T02:46:55;1.23;;;0.25;;
69358;SDS011;56520;49.066;8.660;2022-10-15T02:49:22;0.40;;;0.40;;
69358;SDS011;56520;49.066;8.660;2022-10-15T02:51:48;0.77;;;0.30;;
69358;SDS011;56520;49.066;8.660;2022-10-15T02:54:13;0.38;;;0.20;;
69358;SDS011;56520;49.066;8.660;2022-10-15T02:56:38;0.90;;;0.40;;
69358;SDS011;56520;49.066;8.660;2022-10-15T02:59:04;0.60;;;0.40;;
69358;SDS011;56520;49.066;8.660;2022-10-15T03:01:30;0.57;;;0.25;;
69358;SDS011;56520;49.066;8.660;2022-10-15T03:03:56;0.60;;;0.30;;
69358;SDS011;56520;49.066;8.660;2022-10-15T03:06:22;0.60;;;0.30;;
69358;SDS011;56520;49.066;8.660;2022-10-15T03:08:47;0.25;;;0.22;;
69358;SDS011;56520;49.066;8.660;2022-10-15T03:11:13;0.30;;;0.30;;
69358;SDS011;56520;49.066;8.660;2022-10-15T03:13:38;2.67;;;0.20;;
69358;SDS011;56520;49.066;8.660;2022-10-15T03:16:05;0.90;;;0.50;;
69358;SDS011;56520;49.066;8.660;2022-10-15T03:18:35;0.30;;;0.20;;
69358;SDS011;56520;49.066;8.660;2022-10-15T03:21:01;0.93;;;0.57;;
69358;SDS011;56520;49.066;8.660;2022-10-15T03:23:27;0.35;;;0.20;;
69358;SDS011;56520;49.066;8.660;2022-10-15T03:25:52;0.70;;;0.45;;
69358;SDS011;56520;49.066;8.660;2022-10-15T03:28:18;0.10;;;0.10;;
69358;SDS011;56520;49.066;8.660;2022-10-15T03:30:44;2.00;;;0.30;;
69358;SDS011;56520;49.066;8.660;2022-10-15T03:33:10;0.65;;;0.20;;
69358;SDS011;56520;49.066;8.660;2022-10-15T03:35:36;0.52;;;0.43;;
69358;SDS011;56520;49.066;8.660;2022-10-15T03:38:02;1.83;;;0.47;;
69358;SDS011;56520;49.066;8.660;2022-10-15T03:40:27;9.85;;;0.60;;
69358;SDS011;56520;49.066;8.660;2022-10-15T03:42:53;2.00;;;0.50;;
69358;SDS011;56520;49.066;8.660;2022-10-15T03:45:20;1.42;;;0.28;;
69358;SDS011;56520;49.066;8.660;2022-10-15T03:47:46;0.73;;;0.57;;
69358;SDS011;56520;49.066;8.660;2022-10-15T03:50:11;1.10;;;0.60;;
69358;SDS011;56520;49.066;8.660;2022-10-15T03:52:37;1.25;;;0.57;;
69358;SDS011;56520;49.066;8.660;2022-10-15T03:55:03;0.80;;;0.60;;
69358;SDS011;56520;49.066;8.660;2022-10-15T03:57:29;0.95;;;0.57;;
69358;SDS011;56520;49.066;8.660;2022-10-15T03:59:55;0.65;;;0.32;;
69358;SDS011;56520;49.066;8.660;2022-10-15T04:02:21;1.27;;;0.65;;
69358;SDS011;56520;49.066;8.660;2022-10-15T04:04:47;2.00;;;0.40;;
69358;SDS011;56520;49.066;8.660;2022-10-15T04:07:15;1.48;;;0.85;;
69358;SDS011;56520;49.066;8.660;2022-10-15T04:09:40;1.80;;;0.60;;
69358;SDS011;56520;49.066;8.660;2022-10-15T04:12:06;1.08;;;0.70;;
69358;SDS011;56520;49.066;8.660;2022-10-15T04:14:31;1.15;;;0.40;;
69358;SDS011;56520;49.066;8.660;2022-10-15T04:16:59;0.70;;;0.45;;
69358;SDS011;56520;49.066;8.660;2022-10-15T04:19:24;0.95;;;0.60;;
69358;SDS011;56520;49.066;8.660;2022-10-15T04:21:50;1.23;;;0.60;;
69358;SDS011;56520;49.066;8.660;2022-10-15T04:24:18;0.75;;;0.40;;
69358;SDS011;56520;49.066;8.660;2022-10-15T04:26:43;1.25;;;0.70;;
69358;SDS011;56520;49.066;8.660;2022-10-15T04:29:08;0.98;;;0.70;;
69358;SDS011;56520;49.066;8.660;2022-10-15T04:31:34;0.88;;;0.38;;
69358;SDS011;56520;49.066;8.660;2022-10-15T04:34:01;1.13;;;0.55;;
69358;SDS011;56520;49.066;8.660;2022-10-15T04:36:27;1.23;;;0.60;;
69358;SDS011;56520;49.066;8.660;2022-10-15T04:38:52;1.25;;;0.47;;
69358;SDS011;56520;49.066;8.660;2022-10-15T04:41:18;4.03;;;0.70;;
69358;SDS011;56520;49.066;8.660;2022-10-15T04:43:43;1.25;;;0.70;;
69358;SDS011;56520;49.066;8.660;2022-10-15T04:46:11;1.10;;;0.60;;
69358;SDS011;56520;49.066;8.660;2022-10-15T04:48:37;1.38;;;0.75;;
69358;SDS011;56520;49.066;8.660;2022-10-15T04:51:07;1.40;;;0.77;;
69358;SDS011;56520;49.066;8.660;2022-10-15T04:53:36;2.25;;;0.52;;
69358;SDS011;56520;49.066;8.660;2022-10-15T04:56:05;2.72;;;0.60;;
69358;SDS011;56520;49.066;8.660;2022-10-15T04:58:32;1.83;;;0.70;;
69358;SDS011;56520;49.066;8.660;2022-10-15T05:01:00;1.35;;;0.70;;
69358;SDS011;56520;49.066;8.660;2022-10-15T05:03:27;0.80;;;0.47;;
69358;SDS011;56520;49.066;8.660;2022-10-15T05:05:52;2.45;;;0.80;;
69358;SDS011;56520;49.066;8.660;2022-10-15T05:08:18;1.75;;;0.70;;
69358;SDS011;56520;49.066;8.660;2022-10-15T05:10:43;3.00;;;0.70;;
69358;SDS011;56520;49.066;8.660;2022-10-15T05:13:08;2.45;;;0.82;;
69358;SDS011;56520;49.066;8.660;2022-10-15T05:15:34;3.75;;;0.60;;
69358;SDS011;56520;49.066;8.660;2022-10-15T05:17:59;2.08;;;0.52;;
69358;SDS011;56520;49.066;8.660;2022-10-15T05:20:25;0.50;;;0.35;;
69358;SDS011;56520;49.066;8.660;2022-10-15T05:22:50;3.45;;;0.70;;
69358;SDS011;56520;49.066;8.660;2022-10-15T05:25:15;0.93;;;0.40;;
69358;SDS011;56520;49.066;8.660;2022-10-15T05:27:41;1.27;;;0.52;;
69358;SDS011;56520;49.066;8.660;2022-10-15T05:30:06;1.58;;;0.70;;
69358;SDS011;56520;49.066;8.660;2022-10-15T05:32:32;1.70;;;0.75;;
69358;SDS011;56520;49.066;8.660;2022-10-15T05:34:58;1.05;;;0.40;;
69358;SDS011;56520;49.066;8.660;2022-10-15T05:37:23;1.40;;;0.60;;
69358;SDS011;56520;49.066;8.660;2022-10-15T05:39:49;1.67;;;0.70;;
69358;SDS011;56520;49.066;8.660;2022-10-15T05:42:14;1.13;;;0.50;;
69358;SDS011;56520;49.066;8.660;2022-10-15T05:44:39;2.05;;;0.65;;
69358;SDS011;56520;49.066;8.660;2022-10-15T05:47:05;2.17;;;0.80;;
69358;SDS011;56520;49.066;8.660;2022-10-15T05:49:35;1.77;;;0.90;;
69358;SDS011;56520;49.066;8.660;2022-10-15T05:52:01;1.67;;;0.70;;
69358;SDS011;56520;49.066;8.660;2022-10-15T05:54:26;1.83;;;0.70;;
69358;SDS011;56520;49.066;8.660;2022-10-15T05:56:52;1.75;;;0.80;;
69358;SDS011;56520;49.066;8.660;2022-10-15T05:59:17;0.80;;;0.55;;
69358;SDS011;56520;49.066;8.660;2022-10-15T06:01:42;3.03;;;0.80;;
69358;SDS011;56520;49.066;8.660;2022-10-15T06:04:08;1.52;;;0.60;;
69358;SDS011;56520;49.066;8.660;2022-10-15T06:06:33;1.92;;;0.60;;
69358;SDS011;56520;49.066;8.660;2022-10-15T06:08:58;1.17;;;0.70;;
69358;SDS011;56520;49.066;8.660;2022-10-15T06:11:25;1.63;;;0.80;;
69358;SDS011;56520;49.066;8.660;2022-10-15T06:13:51;1.05;;;0.43;;
69358;SDS011;56520;49.066;8.660;2022-10-15T06:16:17;3.13;;;0.80;;
69358;SDS011;56520;49.066;8.660;2022-10-15T06:18:42;2.22;;;0.90;;
69358;SDS011;56520;49.066;8.660;2022-10-15T06:21:08;1.42;;;0.85;;
69358;SDS011;56520;49.066;8.660;2022-10-15T06:23:35;1.33;;;0.60;;
69358;SDS011;56520;49.066;8.660;2022-10-15T06:26:01;2.28;;;0.80;;
69358;SDS011;56520;49.066;8.660;2022-10-15T06:28:30;2.83;;;1.00;;
69358;SDS011;56520;49.066;8.660;2022-10-15T06:30:56;2.35;;;0.70;;
69358;SDS011;56520;49.066;8.660;2022-10-15T06:33:25;2.50;;;0.80;;
69358;SDS011;56520;49.066;8.660;2022-10-15T06:35:51;4.82;;;0.75;;
69358;SDS011;56520;49.066;8.660;2022-10-15T06:38:16;1.67;;;0.70;;
69358;SDS011;56520;49.066;8.660;2022-10-15T06:40:41;1.00;;;0.50;;
69358;SDS011;56520;49.066;8.660;2022-10-15T06:43:08;2.10;;;0.70;;
69358;SDS011;56520;49.066;8.660;2022-10-15T06:45:38;2.38;;;1.00;;
69358;SDS011;56520;49.066;8.660;2022-10-15T06:48:06;1.95;;;0.70;;
69358;SDS011;56520;49.066;8.660;2022-10-15T06:50:32;1.85;;;0.80;;
69358;SDS011;56520;49.066;8.660;2022-10-15T06:52:58;1.38;;;0.60;;
69358;SDS011;56520;49.066;8.660;2022-10-15T06:55:23;2.25;;;0.70;;
69358;SDS011;56520;49.066;8.660;2022-10-15T06:57:49;2.17;;;0.77;;
69358;SDS011;56520;49.066;8.660;2022-10-15T07:00:14;1.88;;;0.82;;
69358;SDS011;56520;49.066;8.660;2022-10-15T07:02:40;2.40;;;0.75;;
69358;SDS011;56520;49.066;8.660;2022-10-15T07:05:07;2.53;;;0.80;;
69358;SDS011;56520;49.066;8.660;2022-10-15T07:07:33;2.22;;;0.80;;
69358;SDS011;56520;49.066;8.660;2022-10-15T07:09:58;2.38;;;0.90;;
69358;SDS011;56520;49.066;8.660;2022-10-15T07:12:24;2.60;;;0.70;;
69358;SDS011;56520;49.066;8.660;2022-10-15T07:14:49;2.15;;;0.60;;
69358;SDS011;56520;49.066;8.660;2022-10-15T07:17:15;1.52;;;0.68;;
69358;SDS011;56520;49.066;8.660;2022-10-15T07:19:41;1.60;;;0.80;;
69358;SDS011;56520;49.066;8.660;2022-10-15T07:22:06;1.25;;;0.50;;
69358;SDS011;56520;49.066;8.660;2022-10-15T07:24:32;1.58;;;0.80;;
69358;SDS011;56520;49.066;8.660;2022-10-15T07:26:57;2.08;;;0.80;;
69358;SDS011;56520;49.066;8.660;2022-10-15T07:29:23;3.90;;;1.20;;
69358;SDS011;56520;49.066;8.660;2022-10-15T07:31:48;3.42;;;1.20;;
69358;SDS011;56520;49.066;8.660;2022-10-15T07:34:13;2.17;;;0.80;;
69358;SDS011;56520;49.066;8.660;2022-10-15T07:36:39;1.55;;;0.85;;
69358;SDS011;56520;49.066;8.660;2022-10-15T07:39:04;0.65;;;0.45;;
69358;SDS011;56520;49.066;8.660;2022-10-15T07:41:30;3.00;;;1.10;;
69358;SDS011;56520;49.066;8.660;2022-10-15T07:43:55;3.95;;;1.27;;
69358;SDS011;56520;49.066;8.660;2022-10-15T07:46:20;3.03;;;1.00;;
69358;SDS011;56520;49.066;8.660;2022-10-15T07:48:46;2.00;;;0.80;;
69358;SDS011;56520;49.066;8.660;2022-10-15T07:51:11;4.03;;;0.90;;
69358;SDS011;56520;49.066;8.660;2022-10-15T07:53:37;2.72;;;0.82;;
69358;SDS011;56520;49.066;8.660;2022-10-15T07:56:06;2.50;;;0.98;;
69358;SDS011;56520;49.066;8.660;2022-10-15T07:58:34;2.25;;;0.77;;
69358;SDS011;56520;49.066;8.660;2022-10-15T08:01:07;0.82;;;0.45;;
69358;SDS011;56520;49.066;8.660;2022-10-15T08:03:34;2.30;;;0.85;;
69358;SDS011;56520;49.066;8.660;2022-10-15T08:06:00;2.22;;;0.80;;
69358;SDS011;56520;49.066;8.660;2022-10-15T08:08:27;2.05;;;0.80;;
69358;SDS011;56520;49.066;8.660;2022-10-15T08:10:53;1.95;;;0.80;;
69358;SDS011;56520;49.066;8.660;2022-10-15T08:13:19;1.25;;;0.50;;
69358;SDS011;56520;49.066;8.660;2022-10-15T08:15:46;5.30;;;0.70;;
69358;SDS011;56520;49.066;8.660;2022-10-15T08:18:11;1.83;;;0.65;;
69358;SDS011;56520;49.066;8.660;2022-10-15T08:20:37;3.38;;;0.98;;
69358;SDS011;56520;49.066;8.660;2022-10-15T08:23:03;2.53;;;0.70;;
69358;SDS011;56520;49.066;8.660;2022-10-15T08:25:29;1.88;;;0.77;;
69358;SDS011;56520;49.066;8.660;2022-10-15T08:27:59;1.33;;;0.60;;
69358;SDS011;56520;49.066;8.660;2022-10-15T08:30:24;3.30;;;0.70;;
69358;SDS011;56520;49.066;8.660;2022-10-15T08:32:50;1.90;;;0.73;;
69358;SDS011;56520;49.066;8.660;2022-10-15T08:35:15;2.03;;;0.85;;
69358;SDS011;56520;49.066;8.660;2022-10-15T08:37:40;2.42;;;0.60;;
69358;SDS011;56520;49.066;8.660;2022-10-15T08:40:06;1.90;;;0.75;;
69358;SDS011;56520;49.066;8.660;2022-10-15T08:42:38;1.95;;;0.80;;
69358;SDS011;56520;49.066;8.660;2022-10-15T08:45:18;2.22;;;0.75;;
69358;SDS011;56520;49.066;8.660;2022-10-15T08:48:09;2.83;;;0.60;;
69358;SDS011;56520;49.066;8.660;2022-10-15T08:50:50;2.90;;;0.70;;
69358;SDS011;56520;49.066;8.660;2022-10-15T08:53:23;1.90;;;0.80;;
69358;SDS011;56520;49.066;8.660;2022-10-15T08:55:50;1.70;;;0.75;;
69358;SDS011;56520;49.066;8.660;2022-10-15T08:58:22;2.08;;;0.57;;
69358;SDS011;56520;49.066;8.660;2022-10-15T09:00:50;1.35;;;0.60;;
69358;SDS011;56520;49.066;8.660;2022-10-15T09:03:30;2.33;;;0.80;;
69358;SDS011;56520;49.066;8.660;2022-10-15T09:06:11;3.28;;;0.90;;
69358;SDS011;56520;49.066;8.660;2022-10-15T09:09:01;2.40;;;0.80;;
69358;SDS011;56520;49.066;8.660;2022-10-15T09:14:15;0.75;;;0.60;;
69358;SDS011;56520;49.066;8.660;2022-10-15T09:16:49;0.57;;;0.40;;
69358;SDS011;56520;49.066;8.660;2022-10-15T09:19:16;0.95;;;0.40;;
69358;SDS011;56520;49.066;8.660;2022-10-15T09:21:44;2.17;;;0.60;;
69358;SDS011;56520;49.066;8.660;2022-10-15T09:24:12;0.90;;;0.55;;
69358;SDS011;56520;49.066;8.660;2022-10-15T09:31:58;0.98;;;0.52;;
69358;SDS011;56520;49.066;8.660;2022-10-15T09:37:32;1.15;;;0.50;;
69358;SDS011;56520;49.066;8.660;2022-10-15T09:42:48;0.52;;;0.40;;
69358;SDS011;56520;49.066;8.660;2022-10-15T09:45:16;2.90;;;1.00;;
69358;SDS011;56520;49.066;8.660;2022-10-15T09:47:42;0.52;;;0.50;;
69358;SDS011;56520;49.066;8.660;2022-10-15T09:50:09;1.15;;;0.55;;
69358;SDS011;56520;49.066;8.660;2022-10-15T09:52:51;3.03;;;0.40;;
69358;SDS011;56520;49.066;8.660;2022-10-15T10:00:59;1.55;;;0.50;;
69358;SDS011;56520;49.066;8.660;2022-10-15T10:03:28;0.30;;;0.22;;
69358;SDS011;56520;49.066;8.660;2022-10-15T10:06:19;0.52;;;0.20;;
69358;SDS011;56520;49.066;8.660;2022-10-15T10:08:57;0.98;;;0.35;;
69358;SDS011;56520;49.066;8.660;2022-10-15T10:11:24;0.57;;;0.30;;
69358;SDS011;56520;49.066;8.660;2022-10-15T10:16:21;0.65;;;0.30;;
69358;SDS011;56520;49.066;8.660;2022-10-15T10:19:00;0.95;;;0.50;;
69358;SDS011;56520;49.066;8.660;2022-10-15T10:21:33;0.77;;;0.50;;
69358;SDS011;56520;49.066;8.660;2022-10-15T10:27:11;0.77;;;0.40;;
69358;SDS011;56520;49.066;8.660;2022-10-15T10:32:16;1.67;;;0.20;;
69358;SDS011;56520;49.066;8.660;2022-10-15T10:34:44;1.77;;;0.57;;
69358;SDS011;56520;49.066;8.660;2022-10-15T10:37:10;0.55;;;0.40;;
69358;SDS011;56520;49.066;8.660;2022-10-15T10:39:36;2.35;;;0.90;;
69358;SDS011;56520;49.066;8.660;2022-10-15T10:44:54;1.05;;;0.40;;
69358;SDS011;56520;49.066;8.660;2022-10-15T10:54:58;1.05;;;0.40;;
69358;SDS011;56520;49.066;8.660;2022-10-15T10:57:51;1.15;;;0.43;;
69358;SDS011;56520;49.066;8.660;2022-10-15T11:02:59;1.02;;;0.70;;
69358;SDS011;56520;49.066;8.660;2022-10-15T11:05:25;0.75;;;0.47;;
69358;SDS011;56520;49.066;8.660;2022-10-15T11:10:33;0.88;;;0.63;;
69358;SDS011;56520;49.066;8.660;2022-10-15T11:13:38;2.30;;;0.60;;
69358;SDS011;56520;49.066;8.660;2022-10-15T11:16:14;1.17;;;0.55;;
69358;SDS011;56520;49.066;8.660;2022-10-15T11:24:19;1.45;;;0.50;;
69358;SDS011;56520;49.066;8.660;2022-10-15T11:29:52;1.48;;;0.57;;
69358;SDS011;56520;49.066;8.660;2022-10-15T11:32:21;0.75;;;0.50;;
69358;SDS011;56520;49.066;8.660;2022-10-15T11:46:19;2.40;;;0.80;;
69358;SDS011;56520;49.066;8.660;2022-10-15T11:51:45;1.05;;;0.40;;
69358;SDS011;56520;49.066;8.660;2022-10-15T11:54:41;2.40;;;0.45;;
69358;SDS011;56520;49.066;8.660;2022-10-15T11:57:12;2.47;;;0.60;;
69358;SDS011;56520;49.066;8.660;2022-10-15T11:59:54;6.72;;;0.70;;
69358;SDS011;56520;49.066;8.660;2022-10-15T12:02:31;1.00;;;0.50;;
69358;SDS011;56520;49.066;8.660;2022-10-15T12:05:45;1.13;;;0.43;;
69358;SDS011;56520;49.066;8.660;2022-10-15T12:07:58;1.73;;;0.57;;
69358;SDS011;56520;49.066;8.660;2022-10-15T12:10:31;1.52;;;0.63;;
69358;SDS011;56520;49.066;8.660;2022-10-15T12:29:43;0.50;;;0.30;;
69358;SDS011;56520;49.066;8.660;2022-10-15T12:34:46;3.92;;;0.50;;
69358;SDS011;56520;49.066;8.660;2022-10-15T12:37:22;1.40;;;0.70;;
69358;SDS011;56520;49.066;8.660;2022-10-15T12:39:53;2.55;;;0.77;;
69358;SDS011;56520;49.066;8.660;2022-10-15T12:44:49;2.55;;;0.70;;
69358;SDS011;56520;49.066;8.660;2022-10-15T12:47:21;1.10;;;0.55;;
69358;SDS011;56520;49.066;8.660;2022-10-15T12:50:16;2.75;;;0.70;;
69358;SDS011;56520;49.066;8.660;2022-10-15T12:57:55;2.42;;;0.80;;
69358;SDS011;56520;49.066;8.660;2022-10-15T13:03:10;1.50;;;0.57;;
69358;SDS011;56520;49.066;8.660;2022-10-15T13:05:40;1.58;;;0.70;;
69358;SDS011;56520;49.066;8.660;2022-10-15T13:08:11;2.58;;;0.55;;
69358;SDS011;56520;49.066;8.660;2022-10-15T13:10:45;1.98;;;0.50;;
69358;SDS011;56520;49.066;8.660;2022-10-15T13:13:15;2.13;;;0.65;;
69358;SDS011;56520;49.066;8.660;2022-10-15T13:15:58;5.18;;;0.95;;
69358;SDS011;56520;49.066;8.660;2022-10-15T13:18:25;2.63;;;0.88;;
69358;SDS011;56520;49.066;8.660;2022-10-15T13:20:54;1.23;;;0.55;;
69358;SDS011;56520;49.066;8.660;2022-10-15T13:25:49;2.55;;;0.60;;
69358;SDS011;56520;49.066;8.660;2022-10-15T13:28:34;1.38;;;0.60;;
69358;SDS011;56520;49.066;8.660;2022-10-15T13:31:02;1.75;;;0.80;;
69358;SDS011;56520;49.066;8.660;2022-10-15T13:33:31;2.08;;;0.80;;
69358;SDS011;56520;49.066;8.660;2022-10-15T13:36:04;1.77;;;0.80;;
69358;SDS011;56520;49.066;8.660;2022-10-15T13:38:31;2.80;;;0.90;;
69358;SDS011;56520;49.066;8.660;2022-10-15T13:40:57;2.95;;;0.90;;
69358;SDS011;56520;49.066;8.660;2022-10-15T13:43:24;3.38;;;0.90;;
69358;SDS011;56520;49.066;8.660;2022-10-15T13:45:57;2.08;;;0.60;;
69358;SDS011;56520;49.066;8.660;2022-10-15T13:48:31;1.08;;;0.50;;
69358;SDS011;56520;49.066;8.660;2022-10-15T13:51:00;1.58;;;0.60;;
69358;SDS011;56520;49.066;8.660;2022-10-15T13:53:32;4.95;;;1.35;;
69358;SDS011;56520;49.066;8.660;2022-10-15T13:56:00;2.60;;;0.98;;
69358;SDS011;56520;49.066;8.660;2022-10-15T13:58:29;5.38;;;1.67;;
69358;SDS011;56520;49.066;8.660;2022-10-15T14:03:33;3.90;;;1.20;;
69358;SDS011;56520;49.066;8.660;2022-10-15T14:08:50;1.75;;;0.77;;
69358;SDS011;56520;49.066;8.660;2022-10-15T14:11:18;2.47;;;0.60;;
69358;SDS011;56520;49.066;8.660;2022-10-15T14:16:18;2.13;;;0.70;;
69358;SDS011;56520;49.066;8.660;2022-10-15T14:18:46;2.33;;;0.80;;
69358;SDS011;56520;49.066;8.660;2022-10-15T14:21:17;0.90;;;0.50;;
69358;SDS011;56520;49.066;8.660;2022-10-15T14:23:44;1.65;;;0.63;;
69358;SDS011;56520;49.066;8.660;2022-10-15T14:26:11;1.38;;;0.68;;
69358;SDS011;56520;49.066;8.660;2022-10-15T14:28:38;1.42;;;0.57;;
69358;SDS011;56520;49.066;8.660;2022-10-15T14:31:04;3.05;;;0.98;;
69358;SDS011;56520;49.066;8.660;2022-10-15T14:38:30;3.28;;;0.77;;
69358;SDS011;56520;49.066;8.660;2022-10-15T14:41:03;2.35;;;0.82;;
69358;SDS011;56520;49.066;8.660;2022-10-15T14:43:34;3.45;;;1.00;;
69358;SDS011;56520;49.066;8.660;2022-10-15T14:46:01;2.83;;;1.10;;
69358;SDS011;56520;49.066;8.660;2022-10-15T14:48:33;3.53;;;1.00;;
69358;SDS011;56520;49.066;8.660;2022-10-15T14:51:11;3.40;;;0.80;;
69358;SDS011;56520;49.066;8.660;2022-10-15T14:53:43;4.03;;;1.33;;
69358;SDS011;56520;49.066;8.660;2022-10-15T14:56:15;3.15;;;0.85;;
69358;SDS011;56520;49.066;8.660;2022-10-15T14:58:46;3.20;;;0.90;;
69358;SDS011;56520;49.066;8.660;2022-10-15T15:01:16;1.83;;;0.80;;
69358;SDS011;56520;49.066;8.660;2022-10-15T15:03:44;2.97;;;0.95;;
69358;SDS011;56520;49.066;8.660;2022-10-15T15:06:15;1.75;;;0.70;;
69358;SDS011;56520;49.066;8.660;2022-10-15T15:08:41;3.50;;;1.00;;
69358;SDS011;56520;49.066;8.660;2022-10-15T15:11:08;4.22;;;1.08;;
69358;SDS011;56520;49.066;8.660;2022-10-15T15:13:38;2.75;;;0.90;;
69358;SDS011;56520;49.066;8.660;2022-10-15T15:16:05;4.75;;;1.30;;
69358;SDS011;56520;49.066;8.660;2022-10-15T15:18:31;2.38;;;0.80;;
69358;SDS011;56520;49.066;8.660;2022-10-15T15:20:58;1.70;;;0.75;;
69358;SDS011;56520;49.066;8.660;2022-10-15T15:23:26;2.15;;;0.93;;
69358;SDS011;56520;49.066;8.660;2022-10-15T15:25:52;1.60;;;0.70;;
69358;SDS011;56520;49.066;8.660;2022-10-15T15:28:20;3.05;;;0.95;;
69358;SDS011;56520;49.066;8.660;2022-10-15T15:30:53;2.20;;;0.80;;
69358;SDS011;56520;49.066;8.660;2022-10-15T15:33:30;1.75;;;0.80;;
69358;SDS011;56520;49.066;8.660;2022-10-15T15:36:03;2.33;;;0.82;;
69358;SDS011;56520;49.066;8.660;2022-10-15T15:38:31;2.85;;;0.90;;
69358;SDS011;56520;49.066;8.660;2022-10-15T15:41:01;1.42;;;0.60;;
69358;SDS011;56520;49.066;8.660;2022-10-15T15:43:38;1.73;;;0.88;;
69358;SDS011;56520;49.066;8.660;2022-10-15T15:46:04;1.90;;;0.65;;
69358;SDS011;56520;49.066;8.660;2022-10-15T15:48:30;3.22;;;0.90;;
69358;SDS011;56520;49.066;8.660;2022-10-15T15:50:57;2.38;;;0.80;;
69358;SDS011;56520;49.066;8.660;2022-10-15T15:53:25;4.13;;;1.00;;
69358;SDS011;56520;49.066;8.660;2022-10-15T15:55:51;1.45;;;0.70;;
69358;SDS011;56520;49.066;8.660;2022-10-15T15:58:16;3.90;;;0.82;;
69358;SDS011;56520;49.066;8.660;2022-10-15T16:00:42;1.77;;;0.50;;
69358;SDS011;56520;49.066;8.660;2022-10-15T16:03:07;2.47;;;0.80;;
69358;SDS011;56520;49.066;8.660;2022-10-15T16:05:38;1.52;;;0.80;;
69358;SDS011;56520;49.066;8.660;2022-10-15T16:08:04;1.80;;;0.75;;
69358;SDS011;56520;49.066;8.660;2022-10-15T16:10:30;1.92;;;0.88;;
69358;SDS011;56520;49.066;8.660;2022-10-15T16:12:56;2.83;;;0.93;;
69358;SDS011;56520;49.066;8.660;2022-10-15T16:15:21;2.20;;;0.90;;
69358;SDS011;56520;49.066;8.660;2022-10-15T16:17:47;1.90;;;0.63;;
69358;SDS011;56520;49.066;8.660;2022-10-15T16:20:12;1.23;;;0.60;;
69358;SDS011;56520;49.066;8.660;2022-10-15T16:22:39;1.35;;;0.63;;
69358;SDS011;56520;49.066;8.660;2022-10-15T16:25:04;2.33;;;0.88;;
69358;SDS011;56520;49.066;8.660;2022-10-15T16:27:30;2.58;;;0.80;;
69358;SDS011;56520;49.066;8.660;2022-10-15T16:29:58;2.63;;;0.82;;
69358;SDS011;56520;49.066;8.660;2022-10-15T16:32:24;3.30;;;0.80;;
69358;SDS011;56520;49.066;8.660;2022-10-15T16:34:50;4.95;;;1.25;;
69358;SDS011;56520;49.066;8.660;2022-10-15T16:37:15;3.22;;;1.02;;
69358;SDS011;56520;49.066;8.660;2022-10-15T16:39:41;2.80;;;1.00;;
69358;SDS011;56520;49.066;8.660;2022-10-15T16:42:06;1.88;;;0.80;;
69358;SDS011;56520;49.066;8.660;2022-10-15T16:44:33;1.70;;;0.60;;
69358;SDS011;56520;49.066;8.660;2022-10-15T16:46:58;2.60;;;0.70;;
69358;SDS011;56520;49.066;8.660;2022-10-15T16:49:24;3.60;;;0.90;;
69358;SDS011;56520;49.066;8.660;2022-10-15T16:51:49;2.17;;;0.57;;
69358;SDS011;56520;49.066;8.660;2022-10-15T16:54:15;3.03;;;0.68;;
69358;SDS011;56520;49.066;8.660;2022-10-15T16:56:40;2.83;;;1.10;;
69358;SDS011;56520;49.066;8.660;2022-10-15T16:59:06;1.58;;;0.80;;
69358;SDS011;56520;49.066;8.660;2022-10-15T17:01:31;2.08;;;0.70;;
69358;SDS011;56520;49.066;8.660;2022-10-15T17:03:57;2.58;;;0.70;;
69358;SDS011;56520;49.066;8.660;2022-10-15T17:06:24;2.80;;;0.90;;
69358;SDS011;56520;49.066;8.660;2022-10-15T17:08:55;2.53;;;0.88;;
69358;SDS011;56520;49.066;8.660;2022-10-15T17:11:23;2.30;;;1.00;;
69358;SDS011;56520;49.066;8.660;2022-10-15T17:13:50;2.55;;;0.80;;